Flight Track Log - Related Links

Times and Time Zones

All times are in EDT time to prevent confusion due to time zone crossing. See the GGN7268 flight status page for this flight to view local times or setup timezone preferences in your user account.

Time Position Orientation Groundspeed Altitude Reporting Facility
EDT Latitude Longitude Course Direction KTS MPH feet Rate Location/Type
Sun 08:10:05 PM 43.6833 -79.5833 324° Northwest 100 115 1,800  Level Toronto Center
Sun 08:11:04 PM 43.7167 -79.6167 324° Northwest 190 219 2,900 1,008 Climbing Toronto Center
Sun 08:12:04 PM 43.7667 -79.6833 316° Northwest 220 253 3,800 900 Climbing Toronto Center
Sun 08:13:04 PM 43.7667 -79.7667 270° West 230 265 4,700 900 Climbing Toronto Center
Sun 08:14:04 PM 43.7500 -79.8333 251° West 230 265 5,600 645 Climbing Toronto Center
Sun 08:15:05 PM 43.7500 -79.9333 270° West 230 265 6,000 200 Climbing Toronto Center
Sun 08:16:04 PM 43.7500 -80.0333 270° West 250 288 6,000 202 Level Toronto Center
Sun 08:17:04 PM 43.7500 -80.1333 270° West 250 288 6,400 450 Climbing Toronto Center
Sun 08:18:04 PM 43.7500 -80.2333 270° West 250 288 6,900 500 Climbing Toronto Center
Sun 08:19:04 PM 43.7333 -80.3333 257° West 250 288 7,400 500 Climbing Toronto Center
Sun 08:20:04 PM 43.7167 -80.4167 255° West 250 288 7,900 300 Climbing Toronto Center
Sun 08:21:04 PM 43.7000 -80.5167 257° West 260 299 8,000 50 Climbing Toronto Center
Sun 08:22:04 PM 43.6833 -80.6000 255° West 260 299 8,000  Level Toronto Center
Sun 08:23:04 PM 43.6667 -80.7000 257° West 260 299 8,000  Level Toronto Center
Sun 08:24:04 PM 43.6500 -80.7833 255° West 250 288 8,000 -50 Level Toronto Center
Sun 08:25:04 PM 43.6167 -80.9000 248° West 250 288 7,900 -50 Descending Toronto Center
Sun 08:26:04 PM 43.6000 -80.9833 255° West 250 288 7,900  Level Toronto Center
Sun 08:27:04 PM 43.6000 -81.0833 270° West 250 288 7,900  Level Toronto Center
Sun 08:28:04 PM 43.5833 -81.1833 257° West 250 288 7,900  Level Toronto Center
Sun 08:29:04 PM 43.5667 -81.2667 255° West 250 288 7,900  Level Toronto Center
Sun 08:30:04 PM 43.5500 -81.3667 257° West 250 288 7,900  Level Toronto Center
Sun 08:31:04 PM 43.5333 -81.4500 255° West 250 288 7,900  Level Toronto Center
Sun 08:32:04 PM 43.5167 -81.5333 255° West 250 288 7,900  Level Toronto Center
Sun 08:33:04 PM 43.5167 -81.6333 270° West 240 276 7,900  Level Toronto Center
Sun 08:34:04 PM 43.5000 -81.7167 255° West 240 276 7,900  Level Toronto Center
Sun 08:35:04 PM 43.4833 -81.8167 257° West 240 276 7,900  Level Toronto Center
Sun 08:36:04 PM 43.4667 -81.9000 255° West 250 288 7,900  Level Toronto Center
Sun 08:37:05 PM 43.4333 -82.0000 245° Southwest 260 299 7,900 50 Level Toronto Center
Sun 08:38:05 PM 43.4167 -82.1167 259° West 260 299 8,000 76 Climbing Toronto Center
Sun 08:38:24 PM 43.4292 -82.1439 302° West 260 299 8,000  Level Cleveland Center
Sun 08:39:24 PM 43.4131 -82.2406 257° West 260 299 8,000  Level Cleveland Center
Sun 08:40:24 PM 43.3972 -82.3317 257° West 260 299 8,000  Level Cleveland Center
Sun 08:41:24 PM 43.3792 -82.4283 256° West 260 299 8,000  Level Cleveland Center
Sun 08:42:05 PM 43.3667 -82.4833 253° West 260 299 8,000  Level Toronto Center
Sun 08:43:05 PM 43.3500 -82.5667 255° West 260 299 8,000  Level Toronto Center
Sun 08:44:05 PM 43.3167 -82.6833 249° West 260 299 8,000  Level Toronto Center
Sun 08:44:24 PM 43.3325 -82.7067 313° West 260 299 8,000  Level Cleveland Center
Sun 08:45:24 PM 43.3164 -82.8003 257° West 260 299 8,000  Level Cleveland Center
Sun 08:46:24 PM 43.2997 -82.8967 257° West 260 299 8,000  Level Cleveland Center
Sun 08:47:24 PM 43.2811 -82.9900 255° West 260 299 8,000  Level Cleveland Center
Sun 08:48:24 PM 43.2625 -83.0861 255° West 254 292 8,000  Level Cleveland Center
Sun 08:49:24 PM 43.2458 -83.1797 256° West 259 298 8,000  Level Cleveland Center
Sun 08:50:24 PM 43.2267 -83.2842 256° West 259 298 8,000  Level Cleveland Center
Sun 08:51:24 PM 43.2078 -83.3775 255° West 259 298 8,000  Level Cleveland Center
Sun 08:52:24 PM 43.1908 -83.4736 256° West 259 298 8,000  Level Cleveland Center
Sun 08:53:24 PM 43.1719 -83.5667 254° West 259 298 8,000  Level Cleveland Center
Sun 08:54:24 PM 43.1547 -83.6625 256° West 259 298 8,000  Level Cleveland Center
Sun 08:55:24 PM 43.1356 -83.7583 255° West 259 298 8,000  Level Cleveland Center
Sun 08:56:24 PM 43.1164 -83.8483 254° West 259 298 8,000  Level Cleveland Center
Sun 08:57:24 PM 43.0989 -83.9442 256° West 259 298 8,000  Level Cleveland Center
Sun 08:58:24 PM 43.0839 -84.0286 256° West 259 298 8,000  Level Cleveland Center
Sun 09:00:00 PM 43.0399 -84.1624 246° West  Level FlightAware Approximate
Sun 09:05:03 PM 42.9589 -84.6575 255° West 260 299 8,000  Level Chicago Center
Sun 09:06:05 PM 42.9394 -84.7514 254° West 259 298 8,000  Level Chicago Center
Sun 09:07:00 PM 42.9098 -84.7824 256° West  Level FlightAware Approximate
Sun 09:07:07 PM 42.9206 -84.8467 255° West 260 299 8,000  Level Chicago Center
Sun 09:08:00 PM 42.8936 -84.8711 256° West  Level FlightAware Approximate
Sun 09:08:09 PM 42.9078 -84.9461 260° West 265 305 7,000  Level Chicago Center
Sun 09:09:00 PM 42.8772 -84.9597 256° West  Level FlightAware Approximate
Sun 09:09:10 PM 42.8956 -85.0456 261° West 268 308 5,900  Level Chicago Center
Sun 09:10:00 PM 42.8636 -85.0488 255° West  Level FlightAware Approximate
Sun 09:10:12 PM 42.8844 -85.1669 263° West 270 311 4,600  Level Chicago Center
Sun 09:11:14 PM 42.8806 -85.2700 267° West 271 312 3,500 -1,065 Descending Chicago Center
Sun 09:12:16 PM 42.8883 -85.3683 276° West 268 308 2,400 -823 Descending Chicago Center
Sun 09:13:18 PM 42.8867 -85.4450 268° West 226 260 1,800 -677 Descending Chicago Center
Sun 09:14:20 PM 42.8792 -85.5175 262° West 202 232 1,000 -774 Descending Chicago Center
Sun 09:16:00 PM 42.8808 -85.5228 340° North  Level Estimated
Sun 09:23:00 PM 42.8808 -85.5228 340° North  Level Estimated

Login

Don't have an account? Register now (free) for customized features, flight alerts, and more!